Hauptseite
METAR-TAF:

METAR-TAF

Flughäfen :

Flughafen Sylt

Westerland, Deutschland

Breite: 54-55N, Länge: 008-21E, Höhe: 16 m

Beobachtung

Neuester Wetterbericht von vor 44 Minuten, um 07:50 UTC
Wind 14 kt aus West/Nordwest
Temperatur 12°C
Luftfeuchtigkeit 76%
Luftdruck 1011 hPa
Sichtweite 10 km oder mehr
Leicht bewölkt in der Höhe von 3600 ft
Durchbrochene Bewölkung in der Höhe von 9000 ft

METAR: EDXW 230750Z 30014KT 9999 FEW036 BKN090 12/08 Q1011

Zeit: 10:34 (08:34 UTC)

Prognose

Neuester Wetterbericht von vor 50 Minuten, um 07:44 UTC
Gültige Prognose vom 23 um 08 UTC bis 23 um 15 UTC
Wind 12 kt aus West/Nordwest
Sichtweite 10 km oder mehr
Aufgelockert bewölkt in der Höhe von 3500 ft
Übergehend zu
vom 23 um 12 UTC bis 23 um 14 UTC
Wind 15 kt aus Nordwest, Böen bis zu 25 kt

TAF: EDXW 230744Z 2308/2315 30012KT 9999 SCT035 BECMG 2312/2314 32015G25KT

Wetterbeobachtungen und Prognosen von mehr als 4000 Flughäfen (METAR und TAF Bericht).

Die verfügbaren Stationen werden durch gelbe und rote Markierungen auf der Karte dargestellt.

Führen Sie die Maus auf sie, um den Namen der Station zu sehen.

Darauf klicken, um die Beobachtung von Wetterbeobachtungen und Prognosen zu sehen.

Um die Karte zu ändern : klicken Sie auf den grünen Tasten mit einem schwarzen Kreuz Zum Vergrößern, auf den grünen Button mit einem Gedankenstrich zu verkleinern, oder auf die grünen Pfeile für benachbarte Karten.


METAR-TAF: